sensor_id;sensor_type;location;lat;lon;timestamp;P1;durP1;ratioP1;P2;durP2;ratioP2
41229;SDS011;26964;50.428;19.218;2023-06-04T00:00:47;3.4;;;1.8;;
41229;SDS011;26964;50.428;19.218;2023-06-04T00:01:50;4.5;;;1.6;;
41229;SDS011;26964;50.428;19.218;2023-06-04T00:02:47;3.9;;;1.7;;
41229;SDS011;26964;50.428;19.218;2023-06-04T00:03:47;4.2;;;1.8;;
41229;SDS011;26964;50.428;19.218;2023-06-04T00:04:47;5.5;;;1.8;;
41229;SDS011;26964;50.428;19.218;2023-06-04T00:05:47;3.2;;;1.6;;
41229;SDS011;26964;50.428;19.218;2023-06-04T00:06:47;4.8;;;1.3;;
41229;SDS011;26964;50.428;19.218;2023-06-04T00:07:47;3.9;;;1.7;;
41229;SDS011;26964;50.428;19.218;2023-06-04T00:08:47;3.2;;;1.5;;
41229;SDS011;26964;50.428;19.218;2023-06-04T00:09:47;4.2;;;1.8;;
41229;SDS011;26964;50.428;19.218;2023-06-04T00:10:47;5.6;;;1.9;;
41229;SDS011;26964;50.428;19.218;2023-06-04T00:11:47;2.8;;;1.7;;
41229;SDS011;26964;50.428;19.218;2023-06-04T00:12:47;4.5;;;1.7;;
41229;SDS011;26964;50.428;19.218;2023-06-04T00:13:47;5.3;;;2.0;;
41229;SDS011;26964;50.428;19.218;2023-06-04T00:14:47;5.1;;;1.8;;
41229;SDS011;26964;50.428;19.218;2023-06-04T00:15:47;5.6;;;2.2;;
41229;SDS011;26964;50.428;19.218;2023-06-04T00:16:47;6.5;;;2.5;;
41229;SDS011;26964;50.428;19.218;2023-06-04T00:17:47;4.5;;;1.9;;
41229;SDS011;26964;50.428;19.218;2023-06-04T00:18:47;9.5;;;2.2;;
41229;SDS011;26964;50.428;19.218;2023-06-04T00:19:47;4.6;;;1.8;;
41229;SDS011;26964;50.428;19.218;2023-06-04T00:20:47;4.0;;;1.8;;
41229;SDS011;26964;50.428;19.218;2023-06-04T00:21:47;5.3;;;1.9;;
41229;SDS011;26964;50.428;19.218;2023-06-04T00:22:50;4.1;;;2.1;;
41229;SDS011;26964;50.428;19.218;2023-06-04T00:23:47;4.0;;;1.7;;
41229;SDS011;26964;50.428;19.218;2023-06-04T00:24:47;6.3;;;2.2;;
41229;SDS011;26964;50.428;19.218;2023-06-04T00:25:47;4.6;;;2.3;;
41229;SDS011;26964;50.428;19.218;2023-06-04T00:26:47;4.1;;;2.3;;
41229;SDS011;26964;50.428;19.218;2023-06-04T00:27:47;7.8;;;2.6;;
41229;SDS011;26964;50.428;19.218;2023-06-04T00:28:47;4.7;;;2.3;;
41229;SDS011;26964;50.428;19.218;2023-06-04T00:29:47;4.7;;;2.3;;
41229;SDS011;26964;50.428;19.218;2023-06-04T00:30:47;5.4;;;2.0;;
41229;SDS011;26964;50.428;19.218;2023-06-04T00:31:47;6.8;;;2.8;;
41229;SDS011;26964;50.428;19.218;2023-06-04T00:32:47;5.0;;;2.4;;
41229;SDS011;26964;50.428;19.218;2023-06-04T00:33:47;3.9;;;2.3;;
41229;SDS011;26964;50.428;19.218;2023-06-04T00:35:47;5.4;;;2.8;;
41229;SDS011;26964;50.428;19.218;2023-06-04T00:36:47;4.7;;;2.2;;
41229;SDS011;26964;50.428;19.218;2023-06-04T00:37:47;5.6;;;2.3;;
41229;SDS011;26964;50.428;19.218;2023-06-04T00:38:47;4.0;;;2.3;;
41229;SDS011;26964;50.428;19.218;2023-06-04T00:39:47;6.9;;;2.8;;
41229;SDS011;26964;50.428;19.218;2023-06-04T00:40:47;5.6;;;2.1;;
41229;SDS011;26964;50.428;19.218;2023-06-04T00:41:47;3.7;;;2.1;;
41229;SDS011;26964;50.428;19.218;2023-06-04T00:42:47;4.1;;;1.7;;
41229;SDS011;26964;50.428;19.218;2023-06-04T00:43:50;5.3;;;3.0;;
41229;SDS011;26964;50.428;19.218;2023-06-04T00:44:47;4.1;;;2.1;;
41229;SDS011;26964;50.428;19.218;2023-06-04T00:45:47;4.6;;;1.9;;
41229;SDS011;26964;50.428;19.218;2023-06-04T00:46:47;5.1;;;1.8;;
41229;SDS011;26964;50.428;19.218;2023-06-04T00:47:47;4.3;;;1.9;;
41229;SDS011;26964;50.428;19.218;2023-06-04T00:48:47;4.9;;;1.9;;
41229;SDS011;26964;50.428;19.218;2023-06-04T00:49:47;3.1;;;1.6;;
41229;SDS011;26964;50.428;19.218;2023-06-04T00:50:47;4.6;;;1.9;;
41229;SDS011;26964;50.428;19.218;2023-06-04T00:51:47;3.6;;;1.6;;
41229;SDS011;26964;50.428;19.218;2023-06-04T00:52:47;4.7;;;1.8;;
41229;SDS011;26964;50.428;19.218;2023-06-04T00:53:47;5.2;;;1.6;;
41229;SDS011;26964;50.428;19.218;2023-06-04T00:54:47;2.8;;;1.5;;
41229;SDS011;26964;50.428;19.218;2023-06-04T00:55:47;4.7;;;1.7;;
41229;SDS011;26964;50.428;19.218;2023-06-04T00:56:47;4.0;;;1.7;;
41229;SDS011;26964;50.428;19.218;2023-06-04T00:57:47;4.0;;;1.7;;
41229;SDS011;26964;50.428;19.218;2023-06-04T00:58:47;2.9;;;1.4;;
41229;SDS011;26964;50.428;19.218;2023-06-04T00:59:47;4.3;;;2.0;;
41229;SDS011;26964;50.428;19.218;2023-06-04T01:00:47;4.0;;;1.9;;
41229;SDS011;26964;50.428;19.218;2023-06-04T01:01:48;3.4;;;1.4;;
41229;SDS011;26964;50.428;19.218;2023-06-04T01:02:47;5.0;;;1.5;;
41229;SDS011;26964;50.428;19.218;2023-06-04T01:03:49;4.1;;;1.6;;
41229;SDS011;26964;50.428;19.218;2023-06-04T01:04:50;3.5;;;1.9;;
41229;SDS011;26964;50.428;19.218;2023-06-04T01:05:48;4.1;;;1.5;;
41229;SDS011;26964;50.428;19.218;2023-06-04T01:06:47;4.5;;;2.1;;
41229;SDS011;26964;50.428;19.218;2023-06-04T01:07:47;2.8;;;1.5;;
41229;SDS011;26964;50.428;19.218;2023-06-04T01:08:48;4.0;;;1.6;;
41229;SDS011;26964;50.428;19.218;2023-06-04T01:09:47;3.8;;;1.4;;
41229;SDS011;26964;50.428;19.218;2023-06-04T01:11:47;4.4;;;1.8;;
41229;SDS011;26964;50.428;19.218;2023-06-04T01:12:47;4.0;;;1.6;;
41229;SDS011;26964;50.428;19.218;2023-06-04T01:13:47;4.1;;;1.6;;
41229;SDS011;26964;50.428;19.218;2023-06-04T01:14:47;3.2;;;1.3;;
41229;SDS011;26964;50.428;19.218;2023-06-04T01:15:47;5.9;;;1.4;;
41229;SDS011;26964;50.428;19.218;2023-06-04T01:16:49;3.5;;;1.5;;
41229;SDS011;26964;50.428;19.218;2023-06-04T01:17:48;3.8;;;1.6;;
41229;SDS011;26964;50.428;19.218;2023-06-04T01:18:47;4.3;;;1.9;;
41229;SDS011;26964;50.428;19.218;2023-06-04T01:20:47;3.9;;;1.4;;
41229;SDS011;26964;50.428;19.218;2023-06-04T01:21:47;2.7;;;1.4;;
41229;SDS011;26964;50.428;19.218;2023-06-04T01:22:50;3.3;;;1.5;;
41229;SDS011;26964;50.428;19.218;2023-06-04T01:23:48;4.1;;;1.4;;
41229;SDS011;26964;50.428;19.218;2023-06-04T01:24:48;4.4;;;1.5;;
41229;SDS011;26964;50.428;19.218;2023-06-04T01:25:47;4.7;;;1.7;;
41229;SDS011;26964;50.428;19.218;2023-06-04T01:26:47;4.4;;;1.5;;
41229;SDS011;26964;50.428;19.218;2023-06-04T01:27:48;3.9;;;1.6;;
41229;SDS011;26964;50.428;19.218;2023-06-04T01:28:47;3.2;;;1.7;;
41229;SDS011;26964;50.428;19.218;2023-06-04T01:29:47;6.8;;;1.9;;
41229;SDS011;26964;50.428;19.218;2023-06-04T01:30:47;3.8;;;1.4;;
41229;SDS011;26964;50.428;19.218;2023-06-04T01:31:47;4.4;;;1.6;;
41229;SDS011;26964;50.428;19.218;2023-06-04T01:32:47;2.9;;;1.4;;
41229;SDS011;26964;50.428;19.218;2023-06-04T01:33:47;4.4;;;1.7;;
41229;SDS011;26964;50.428;19.218;2023-06-04T01:34:47;2.7;;;1.4;;
41229;SDS011;26964;50.428;19.218;2023-06-04T01:35:47;2.3;;;1.3;;
41229;SDS011;26964;50.428;19.218;2023-06-04T01:36:47;7.5;;;1.6;;
41229;SDS011;26964;50.428;19.218;2023-06-04T01:37:47;4.7;;;1.4;;
41229;SDS011;26964;50.428;19.218;2023-06-04T01:38:47;4.2;;;1.6;;
41229;SDS011;26964;50.428;19.218;2023-06-04T01:39:47;5.4;;;1.7;;
41229;SDS011;26964;50.428;19.218;2023-06-04T01:40:47;4.8;;;1.4;;
41229;SDS011;26964;50.428;19.218;2023-06-04T01:41:47;4.5;;;1.7;;
41229;SDS011;26964;50.428;19.218;2023-06-04T01:42:48;3.3;;;1.8;;
41229;SDS011;26964;50.428;19.218;2023-06-04T01:43:47;5.8;;;1.7;;
41229;SDS011;26964;50.428;19.218;2023-06-04T01:44:47;5.3;;;1.4;;
41229;SDS011;26964;50.428;19.218;2023-06-04T01:45:48;3.0;;;1.3;;
41229;SDS011;26964;50.428;19.218;2023-06-04T01:46:47;6.1;;;1.3;;
41229;SDS011;26964;50.428;19.218;2023-06-04T01:47:47;3.7;;;1.7;;
41229;SDS011;26964;50.428;19.218;2023-06-04T01:48:47;2.7;;;1.3;;
41229;SDS011;26964;50.428;19.218;2023-06-04T01:49:47;5.1;;;1.7;;
41229;SDS011;26964;50.428;19.218;2023-06-04T01:50:47;3.3;;;1.5;;
41229;SDS011;26964;50.428;19.218;2023-06-04T01:51:47;3.0;;;1.3;;
41229;SDS011;26964;50.428;19.218;2023-06-04T01:52:47;4.7;;;1.5;;
41229;SDS011;26964;50.428;19.218;2023-06-04T01:53:47;3.1;;;1.5;;
41229;SDS011;26964;50.428;19.218;2023-06-04T01:54:47;2.3;;;1.2;;
41229;SDS011;26964;50.428;19.218;2023-06-04T01:55:47;3.3;;;1.4;;
41229;SDS011;26964;50.428;19.218;2023-06-04T01:56:47;4.2;;;1.6;;
41229;SDS011;26964;50.428;19.218;2023-06-04T01:57:47;6.7;;;1.8;;
41229;SDS011;26964;50.428;19.218;2023-06-04T01:58:47;5.2;;;1.7;;
41229;SDS011;26964;50.428;19.218;2023-06-04T01:59:47;4.2;;;1.5;;
41229;SDS011;26964;50.428;19.218;2023-06-04T02:00:47;3.1;;;1.4;;
41229;SDS011;26964;50.428;19.218;2023-06-04T02:01:47;5.1;;;1.7;;
41229;SDS011;26964;50.428;19.218;2023-06-04T02:02:47;6.2;;;1.6;;
41229;SDS011;26964;50.428;19.218;2023-06-04T02:03:47;3.7;;;1.4;;
41229;SDS011;26964;50.428;19.218;2023-06-04T02:04:47;3.3;;;1.6;;
41229;SDS011;26964;50.428;19.218;2023-06-04T02:05:47;4.0;;;1.6;;
41229;SDS011;26964;50.428;19.218;2023-06-04T02:06:48;3.6;;;1.4;;
41229;SDS011;26964;50.428;19.218;2023-06-04T02:07:47;4.3;;;1.8;;
41229;SDS011;26964;50.428;19.218;2023-06-04T02:08:47;3.1;;;1.6;;
41229;SDS011;26964;50.428;19.218;2023-06-04T02:09:47;3.5;;;1.5;;
41229;SDS011;26964;50.428;19.218;2023-06-04T02:10:47;2.8;;;1.4;;
41229;SDS011;26964;50.428;19.218;2023-06-04T02:11:47;4.4;;;1.7;;
41229;SDS011;26964;50.428;19.218;2023-06-04T02:13:47;4.2;;;1.5;;
41229;SDS011;26964;50.428;19.218;2023-06-04T02:14:47;4.4;;;1.7;;
41229;SDS011;26964;50.428;19.218;2023-06-04T02:15:47;3.6;;;1.3;;
41229;SDS011;26964;50.428;19.218;2023-06-04T02:16:47;3.8;;;1.6;;
41229;SDS011;26964;50.428;19.218;2023-06-04T02:17:47;2.8;;;1.5;;
41229;SDS011;26964;50.428;19.218;2023-06-04T02:18:47;3.9;;;1.5;;
41229;SDS011;26964;50.428;19.218;2023-06-04T02:19:47;3.6;;;1.3;;
41229;SDS011;26964;50.428;19.218;2023-06-04T02:20:47;4.9;;;1.7;;
41229;SDS011;26964;50.428;19.218;2023-06-04T02:21:47;3.7;;;1.6;;
41229;SDS011;26964;50.428;19.218;2023-06-04T02:22:47;3.8;;;1.5;;
41229;SDS011;26964;50.428;19.218;2023-06-04T02:23:47;4.5;;;1.6;;
41229;SDS011;26964;50.428;19.218;2023-06-04T02:24:47;7.0;;;1.9;;
41229;SDS011;26964;50.428;19.218;2023-06-04T02:25:47;4.0;;;1.7;;
41229;SDS011;26964;50.428;19.218;2023-06-04T02:26:47;3.7;;;1.6;;
41229;SDS011;26964;50.428;19.218;2023-06-04T02:27:47;4.0;;;1.8;;
41229;SDS011;26964;50.428;19.218;2023-06-04T02:28:47;3.3;;;1.4;;
41229;SDS011;26964;50.428;19.218;2023-06-04T02:29:49;4.7;;;1.7;;
41229;SDS011;26964;50.428;19.218;2023-06-04T02:30:47;5.4;;;2.2;;
41229;SDS011;26964;50.428;19.218;2023-06-04T02:31:47;5.3;;;1.9;;
41229;SDS011;26964;50.428;19.218;2023-06-04T02:32:47;3.0;;;1.5;;
41229;SDS011;26964;50.428;19.218;2023-06-04T02:33:47;4.2;;;1.6;;
41229;SDS011;26964;50.428;19.218;2023-06-04T02:34:47;4.6;;;1.5;;
41229;SDS011;26964;50.428;19.218;2023-06-04T02:35:47;3.9;;;1.7;;
41229;SDS011;26964;50.428;19.218;2023-06-04T02:36:47;7.3;;;1.9;;
41229;SDS011;26964;50.428;19.218;2023-06-04T02:37:47;3.4;;;1.7;;
41229;SDS011;26964;50.428;19.218;2023-06-04T02:38:47;5.3;;;1.7;;
41229;SDS011;26964;50.428;19.218;2023-06-04T02:39:47;5.7;;;1.9;;
41229;SDS011;26964;50.428;19.218;2023-06-04T02:40:47;5.8;;;1.8;;
41229;SDS011;26964;50.428;19.218;2023-06-04T02:41:47;5.0;;;1.6;;
41229;SDS011;26964;50.428;19.218;2023-06-04T02:42:47;3.9;;;1.4;;
41229;SDS011;26964;50.428;19.218;2023-06-04T02:43:47;3.8;;;1.8;;
41229;SDS011;26964;50.428;19.218;2023-06-04T02:44:47;3.7;;;1.5;;
41229;SDS011;26964;50.428;19.218;2023-06-04T02:45:47;4.7;;;2.3;;
41229;SDS011;26964;50.428;19.218;2023-06-04T02:46:47;4.3;;;1.8;;
41229;SDS011;26964;50.428;19.218;2023-06-04T02:47:47;3.8;;;1.7;;
41229;SDS011;26964;50.428;19.218;2023-06-04T02:48:47;5.7;;;1.5;;
41229;SDS011;26964;50.428;19.218;2023-06-04T02:49:47;4.2;;;1.7;;
41229;SDS011;26964;50.428;19.218;2023-06-04T02:50:49;5.1;;;1.8;;
41229;SDS011;26964;50.428;19.218;2023-06-04T02:51:47;5.4;;;1.7;;
41229;SDS011;26964;50.428;19.218;2023-06-04T02:52:47;4.8;;;1.7;;
41229;SDS011;26964;50.428;19.218;2023-06-04T02:53:47;6.8;;;2.4;;
41229;SDS011;26964;50.428;19.218;2023-06-04T02:54:47;6.6;;;2.2;;
41229;SDS011;26964;50.428;19.218;2023-06-04T02:55:47;4.8;;;2.2;;
41229;SDS011;26964;50.428;19.218;2023-06-04T02:56:47;4.5;;;1.9;;
41229;SDS011;26964;50.428;19.218;2023-06-04T02:57:47;5.5;;;2.1;;
41229;SDS011;26964;50.428;19.218;2023-06-04T02:58:48;3.9;;;2.0;;
41229;SDS011;26964;50.428;19.218;2023-06-04T02:59:47;8.5;;;2.6;;
41229;SDS011;26964;50.428;19.218;2023-06-04T03:00:47;3.7;;;1.9;;
41229;SDS011;26964;50.428;19.218;2023-06-04T03:01:47;8.1;;;2.9;;
41229;SDS011;26964;50.428;19.218;2023-06-04T03:02:47;4.6;;;2.3;;
41229;SDS011;26964;50.428;19.218;2023-06-04T03:03:47;4.3;;;2.1;;
41229;SDS011;26964;50.428;19.218;2023-06-04T03:04:47;6.6;;;2.3;;
41229;SDS011;26964;50.428;19.218;2023-06-04T03:05:47;4.5;;;2.3;;
41229;SDS011;26964;50.428;19.218;2023-06-04T03:06:47;5.2;;;3.0;;
41229;SDS011;26964;50.428;19.218;2023-06-04T03:07:47;6.6;;;2.6;;
41229;SDS011;26964;50.428;19.218;2023-06-04T03:08:47;3.1;;;1.9;;
41229;SDS011;26964;50.428;19.218;2023-06-04T03:09:47;4.4;;;2.1;;
41229;SDS011;26964;50.428;19.218;2023-06-04T03:10:47;4.2;;;2.2;;
41229;SDS011;26964;50.428;19.218;2023-06-04T03:11:49;6.6;;;2.2;;
41229;SDS011;26964;50.428;19.218;2023-06-04T03:12:47;4.5;;;2.1;;
41229;SDS011;26964;50.428;19.218;2023-06-04T03:13:47;4.1;;;2.2;;
41229;SDS011;26964;50.428;19.218;2023-06-04T03:14:47;6.1;;;2.4;;
41229;SDS011;26964;50.428;19.218;2023-06-04T03:15:47;7.0;;;2.6;;
41229;SDS011;26964;50.428;19.218;2023-06-04T03:16:47;4.3;;;2.3;;
41229;SDS011;26964;50.428;19.218;2023-06-04T03:17:47;6.0;;;2.4;;
41229;SDS011;26964;50.428;19.218;2023-06-04T03:18:47;3.7;;;2.2;;
41229;SDS011;26964;50.428;19.218;2023-06-04T03:19:47;4.7;;;2.4;;
41229;SDS011;26964;50.428;19.218;2023-06-04T03:20:47;4.5;;;2.3;;
41229;SDS011;26964;50.428;19.218;2023-06-04T03:21:47;3.3;;;2.0;;
41229;SDS011;26964;50.428;19.218;2023-06-04T03:22:47;5.0;;;2.3;;
41229;SDS011;26964;50.428;19.218;2023-06-04T03:23:47;6.3;;;2.7;;
41229;SDS011;26964;50.428;19.218;2023-06-04T03:24:47;4.1;;;2.3;;
41229;SDS011;26964;50.428;19.218;2023-06-04T03:25:47;4.1;;;2.1;;
41229;SDS011;26964;50.428;19.218;2023-06-04T03:26:47;4.6;;;2.3;;
41229;SDS011;26964;50.428;19.218;2023-06-04T03:27:47;3.5;;;2.0;;
41229;SDS011;26964;50.428;19.218;2023-06-04T03:28:47;4.7;;;2.4;;
41229;SDS011;26964;50.428;19.218;2023-06-04T03:29:47;7.5;;;2.7;;
41229;SDS011;26964;50.428;19.218;2023-06-04T03:30:46;5.7;;;2.2;;
41229;SDS011;26964;50.428;19.218;2023-06-04T03:31:47;5.1;;;2.2;;
41229;SDS011;26964;50.428;19.218;2023-06-04T03:32:47;6.2;;;2.3;;
41229;SDS011;26964;50.428;19.218;2023-06-04T03:33:47;5.0;;;2.2;;
41229;SDS011;26964;50.428;19.218;2023-06-04T03:34:47;3.5;;;2.3;;
41229;SDS011;26964;50.428;19.218;2023-06-04T03:35:47;3.8;;;2.1;;
41229;SDS011;26964;50.428;19.218;2023-06-04T03:36:46;5.9;;;2.3;;
41229;SDS011;26964;50.428;19.218;2023-06-04T03:37:46;5.2;;;2.6;;
41229;SDS011;26964;50.428;19.218;2023-06-04T03:38:47;4.1;;;2.2;;
41229;SDS011;26964;50.428;19.218;2023-06-04T03:39:47;6.9;;;2.5;;
41229;SDS011;26964;50.428;19.218;2023-06-04T03:40:48;4.6;;;2.2;;
41229;SDS011;26964;50.428;19.218;2023-06-04T03:41:47;5.1;;;2.0;;
41229;SDS011;26964;50.428;19.218;2023-06-04T03:42:47;6.6;;;2.8;;
41229;SDS011;26964;50.428;19.218;2023-06-04T03:43:46;4.9;;;2.4;;
41229;SDS011;26964;50.428;19.218;2023-06-04T03:44:47;5.1;;;2.6;;
41229;SDS011;26964;50.428;19.218;2023-06-04T03:45:47;7.3;;;2.5;;
41229;SDS011;26964;50.428;19.218;2023-06-04T03:46:47;5.6;;;2.7;;
41229;SDS011;26964;50.428;19.218;2023-06-04T03:47:47;4.9;;;2.5;;
41229;SDS011;26964;50.428;19.218;2023-06-04T03:48:47;4.0;;;2.0;;
41229;SDS011;26964;50.428;19.218;2023-06-04T03:49:47;4.8;;;2.4;;
41229;SDS011;26964;50.428;19.218;2023-06-04T03:50:47;6.1;;;2.7;;
41229;SDS011;26964;50.428;19.218;2023-06-04T03:51:46;5.0;;;2.7;;
41229;SDS011;26964;50.428;19.218;2023-06-04T03:52:47;5.5;;;2.4;;
41229;SDS011;26964;50.428;19.218;2023-06-04T03:53:47;7.0;;;2.7;;
41229;SDS011;26964;50.428;19.218;2023-06-04T03:55:47;7.1;;;2.8;;
41229;SDS011;26964;50.428;19.218;2023-06-04T03:56:47;3.6;;;2.0;;
41229;SDS011;26964;50.428;19.218;2023-06-04T03:57:46;7.0;;;2.5;;
41229;SDS011;26964;50.428;19.218;2023-06-04T03:58:46;5.3;;;2.3;;
41229;SDS011;26964;50.428;19.218;2023-06-04T03:59:46;6.8;;;2.4;;
41229;SDS011;26964;50.428;19.218;2023-06-04T04:00:47;4.5;;;2.3;;
41229;SDS011;26964;50.428;19.218;2023-06-04T04:01:46;5.2;;;2.3;;
41229;SDS011;26964;50.428;19.218;2023-06-04T04:02:47;4.1;;;1.9;;
41229;SDS011;26964;50.428;19.218;2023-06-04T04:03:46;4.9;;;2.1;;
41229;SDS011;26964;50.428;19.218;2023-06-04T04:04:46;4.9;;;2.2;;
41229;SDS011;26964;50.428;19.218;2023-06-04T04:05:47;4.2;;;2.4;;
41229;SDS011;26964;50.428;19.218;2023-06-04T04:06:47;4.7;;;2.1;;
41229;SDS011;26964;50.428;19.218;2023-06-04T04:07:46;5.6;;;2.2;;
41229;SDS011;26964;50.428;19.218;2023-06-04T04:08:47;3.8;;;1.8;;
41229;SDS011;26964;50.428;19.218;2023-06-04T04:09:46;6.2;;;2.1;;
41229;SDS011;26964;50.428;19.218;2023-06-04T04:10:47;5.1;;;2.3;;
41229;SDS011;26964;50.428;19.218;2023-06-04T04:11:47;5.2;;;2.2;;
41229;SDS011;26964;50.428;19.218;2023-06-04T04:12:46;5.6;;;2.3;;
41229;SDS011;26964;50.428;19.218;2023-06-04T04:13:46;4.7;;;1.9;;
41229;SDS011;26964;50.428;19.218;2023-06-04T04:14:47;5.7;;;2.1;;
41229;SDS011;26964;50.428;19.218;2023-06-04T04:15:46;4.0;;;2.2;;
41229;SDS011;26964;50.428;19.218;2023-06-04T04:16:47;6.9;;;2.1;;
41229;SDS011;26964;50.428;19.218;2023-06-04T04:17:46;2.9;;;1.8;;
41229;SDS011;26964;50.428;19.218;2023-06-04T04:18:46;4.8;;;2.2;;
41229;SDS011;26964;50.428;19.218;2023-06-04T04:19:46;3.7;;;1.9;;
41229;SDS011;26964;50.428;19.218;2023-06-04T04:20:46;4.9;;;2.2;;
41229;SDS011;26964;50.428;19.218;2023-06-04T04:21:47;5.8;;;2.1;;
41229;SDS011;26964;50.428;19.218;2023-06-04T04:22:46;5.1;;;2.1;;
41229;SDS011;26964;50.428;19.218;2023-06-04T04:23:46;7.1;;;2.4;;
41229;SDS011;26964;50.428;19.218;2023-06-04T04:24:46;4.6;;;2.3;;
41229;SDS011;26964;50.428;19.218;2023-06-04T04:25:47;5.5;;;2.4;;
41229;SDS011;26964;50.428;19.218;2023-06-04T04:26:46;5.3;;;2.5;;
41229;SDS011;26964;50.428;19.218;2023-06-04T04:27:47;3.8;;;2.1;;
41229;SDS011;26964;50.428;19.218;2023-06-04T04:28:46;5.8;;;2.1;;
41229;SDS011;26964;50.428;19.218;2023-06-04T04:29:46;5.2;;;2.1;;
41229;SDS011;26964;50.428;19.218;2023-06-04T04:30:46;5.3;;;2.2;;
41229;SDS011;26964;50.428;19.218;2023-06-04T04:31:46;6.2;;;2.0;;
41229;SDS011;26964;50.428;19.218;2023-06-04T04:32:46;4.6;;;2.0;;
41229;SDS011;26964;50.428;19.218;2023-06-04T04:33:46;6.8;;;2.1;;
41229;SDS011;26964;50.428;19.218;2023-06-04T04:35:47;4.9;;;2.0;;
41229;SDS011;26964;50.428;19.218;2023-06-04T04:36:47;7.2;;;2.3;;
41229;SDS011;26964;50.428;19.218;2023-06-04T04:37:46;3.7;;;1.8;;
41229;SDS011;26964;50.428;19.218;2023-06-04T04:38:46;4.9;;;2.1;;
41229;SDS011;26964;50.428;19.218;2023-06-04T04:39:47;5.7;;;2.3;;
41229;SDS011;26964;50.428;19.218;2023-06-04T04:40:46;4.3;;;2.0;;
41229;SDS011;26964;50.428;19.218;2023-06-04T04:41:46;3.8;;;2.1;;
41229;SDS011;26964;50.428;19.218;2023-06-04T04:42:46;3.7;;;1.7;;
41229;SDS011;26964;50.428;19.218;2023-06-04T04:43:46;3.8;;;2.0;;
41229;SDS011;26964;50.428;19.218;2023-06-04T04:44:46;4.8;;;2.2;;
41229;SDS011;26964;50.428;19.218;2023-06-04T04:45:46;5.4;;;2.0;;
41229;SDS011;26964;50.428;19.218;2023-06-04T04:46:47;7.6;;;2.3;;
41229;SDS011;26964;50.428;19.218;2023-06-04T04:47:47;4.0;;;2.2;;
41229;SDS011;26964;50.428;19.218;2023-06-04T04:48:46;5.1;;;2.2;;
41229;SDS011;26964;50.428;19.218;2023-06-04T04:49:46;3.3;;;1.8;;
41229;SDS011;26964;50.428;19.218;2023-06-04T04:50:46;4.1;;;2.4;;
41229;SDS011;26964;50.428;19.218;2023-06-04T04:51:46;5.4;;;1.9;;
41229;SDS011;26964;50.428;19.218;2023-06-04T04:52:46;7.2;;;2.1;;
41229;SDS011;26964;50.428;19.218;2023-06-04T04:53:46;4.5;;;2.0;;
41229;SDS011;26964;50.428;19.218;2023-06-04T04:54:46;4.6;;;1.9;;
41229;SDS011;26964;50.428;19.218;2023-06-04T04:55:46;5.0;;;2.1;;
41229;SDS011;26964;50.428;19.218;2023-06-04T04:56:47;7.2;;;1.7;;
41229;SDS011;26964;50.428;19.218;2023-06-04T04:57:46;5.5;;;2.0;;
41229;SDS011;26964;50.428;19.218;2023-06-04T04:58:47;5.2;;;2.0;;
41229;SDS011;26964;50.428;19.218;2023-06-04T04:59:46;4.7;;;1.9;;
41229;SDS011;26964;50.428;19.218;2023-06-04T05:00:47;3.2;;;1.8;;
41229;SDS011;26964;50.428;19.218;2023-06-04T05:01:47;6.9;;;1.9;;
41229;SDS011;26964;50.428;19.218;2023-06-04T05:02:46;2.8;;;1.4;;
41229;SDS011;26964;50.428;19.218;2023-06-04T05:03:46;4.9;;;2.3;;
41229;SDS011;26964;50.428;19.218;2023-06-04T05:04:46;7.5;;;1.8;;
41229;SDS011;26964;50.428;19.218;2023-06-04T05:05:46;4.0;;;2.1;;
41229;SDS011;26964;50.428;19.218;2023-06-04T05:06:46;4.1;;;1.4;;
41229;SDS011;26964;50.428;19.218;2023-06-04T05:07:46;5.2;;;1.9;;
41229;SDS011;26964;50.428;19.218;2023-06-04T05:08:47;3.2;;;1.8;;
41229;SDS011;26964;50.428;19.218;2023-06-04T05:09:47;6.0;;;1.8;;
41229;SDS011;26964;50.428;19.218;2023-06-04T05:10:46;6.3;;;1.8;;
41229;SDS011;26964;50.428;19.218;2023-06-04T05:11:46;4.0;;;1.6;;
41229;SDS011;26964;50.428;19.218;2023-06-04T05:13:46;4.0;;;1.9;;
41229;SDS011;26964;50.428;19.218;2023-06-04T05:14:46;4.6;;;1.7;;
41229;SDS011;26964;50.428;19.218;2023-06-04T05:15:46;6.4;;;1.8;;
41229;SDS011;26964;50.428;19.218;2023-06-04T05:16:46;3.9;;;1.6;;
41229;SDS011;26964;50.428;19.218;2023-06-04T05:17:47;5.5;;;1.6;;
41229;SDS011;26964;50.428;19.218;2023-06-04T05:18:49;3.9;;;1.9;;
41229;SDS011;26964;50.428;19.218;2023-06-04T05:19:46;5.1;;;2.2;;
41229;SDS011;26964;50.428;19.218;2023-06-04T05:20:47;5.9;;;2.0;;
41229;SDS011;26964;50.428;19.218;2023-06-04T05:21:46;3.0;;;1.6;;
41229;SDS011;26964;50.428;19.218;2023-06-04T05:22:46;4.9;;;2.3;;
41229;SDS011;26964;50.428;19.218;2023-06-04T05:23:46;5.0;;;2.3;;
41229;SDS011;26964;50.428;19.218;2023-06-04T05:24:46;4.0;;;1.6;;
41229;SDS011;26964;50.428;19.218;2023-06-04T05:25:46;3.5;;;1.4;;
41229;SDS011;26964;50.428;19.218;2023-06-04T05:26:46;5.8;;;2.3;;
41229;SDS011;26964;50.428;19.218;2023-06-04T05:27:46;5.8;;;1.5;;
41229;SDS011;26964;50.428;19.218;2023-06-04T05:28:46;4.4;;;1.8;;
41229;SDS011;26964;50.428;19.218;2023-06-04T05:29:46;4.1;;;1.5;;
41229;SDS011;26964;50.428;19.218;2023-06-04T05:30:46;2.7;;;1.4;;
41229;SDS011;26964;50.428;19.218;2023-06-04T05:31:46;4.2;;;1.5;;
41229;SDS011;26964;50.428;19.218;2023-06-04T05:32:46;4.2;;;1.6;;
41229;SDS011;26964;50.428;19.218;2023-06-04T05:33:46;5.1;;;1.6;;
41229;SDS011;26964;50.428;19.218;2023-06-04T05:34:46;4.0;;;1.9;;
41229;SDS011;26964;50.428;19.218;2023-06-04T05:35:47;4.6;;;1.3;;
41229;SDS011;26964;50.428;19.218;2023-06-04T05:36:46;4.7;;;1.6;;
41229;SDS011;26964;50.428;19.218;2023-06-04T05:37:46;3.9;;;1.8;;
41229;SDS011;26964;50.428;19.218;2023-06-04T05:38:46;3.2;;;1.8;;
41229;SDS011;26964;50.428;19.218;2023-06-04T05:39:47;3.8;;;1.3;;
41229;SDS011;26964;50.428;19.218;2023-06-04T05:40:46;2.4;;;1.3;;
41229;SDS011;26964;50.428;19.218;2023-06-04T05:41:46;6.2;;;1.3;;
41229;SDS011;26964;50.428;19.218;2023-06-04T05:42:46;3.2;;;1.6;;
41229;SDS011;26964;50.428;19.218;2023-06-04T05:43:46;4.2;;;1.3;;
41229;SDS011;26964;50.428;19.218;2023-06-04T05:44:46;3.0;;;1.7;;
41229;SDS011;26964;50.428;19.218;2023-06-04T05:45:46;2.1;;;1.1;;
41229;SDS011;26964;50.428;19.218;2023-06-04T05:46:46;3.4;;;1.6;;
41229;SDS011;26964;50.428;19.218;2023-06-04T05:47:46;3.4;;;1.7;;
41229;SDS011;26964;50.428;19.218;2023-06-04T05:48:46;3.0;;;1.2;;
41229;SDS011;26964;50.428;19.218;2023-06-04T05:49:46;3.9;;;1.4;;
41229;SDS011;26964;50.428;19.218;2023-06-04T05:50:46;3.7;;;1.4;;
41229;SDS011;26964;50.428;19.218;2023-06-04T05:51:46;4.7;;;1.5;;
41229;SDS011;26964;50.428;19.218;2023-06-04T05:52:46;4.4;;;1.4;;
41229;SDS011;26964;50.428;19.218;2023-06-04T05:53:47;2.5;;;1.1;;
41229;SDS011;26964;50.428;19.218;2023-06-04T05:54:47;4.7;;;1.4;;
41229;SDS011;26964;50.428;19.218;2023-06-04T05:55:46;5.3;;;1.5;;
41229;SDS011;26964;50.428;19.218;2023-06-04T05:56:46;4.0;;;1.7;;
41229;SDS011;26964;50.428;19.218;2023-06-04T05:57:46;4.0;;;1.1;;
41229;SDS011;26964;50.428;19.218;2023-06-04T05:59:46;4.4;;;1.3;;
41229;SDS011;26964;50.428;19.218;2023-06-04T06:00:47;10.6;;;1.5;;
41229;SDS011;26964;50.428;19.218;2023-06-04T06:01:46;3.3;;;1.4;;
41229;SDS011;26964;50.428;19.218;2023-06-04T06:02:46;2.7;;;1.3;;
41229;SDS011;26964;50.428;19.218;2023-06-04T06:03:46;4.6;;;1.4;;
41229;SDS011;26964;50.428;19.218;2023-06-04T06:04:47;4.3;;;1.3;;
41229;SDS011;26964;50.428;19.218;2023-06-04T06:05:46;4.5;;;1.6;;
41229;SDS011;26964;50.428;19.218;2023-06-04T06:06:46;5.0;;;1.2;;
41229;SDS011;26964;50.428;19.218;2023-06-04T06:07:47;3.5;;;1.3;;
41229;SDS011;26964;50.428;19.218;2023-06-04T06:08:46;4.6;;;1.5;;
41229;SDS011;26964;50.428;19.218;2023-06-04T06:09:46;4.6;;;1.6;;
41229;SDS011;26964;50.428;19.218;2023-06-04T06:10:46;3.2;;;1.4;;
41229;SDS011;26964;50.428;19.218;2023-06-04T06:11:46;2.7;;;1.5;;
41229;SDS011;26964;50.428;19.218;2023-06-04T06:12:46;5.6;;;1.6;;
41229;SDS011;26964;50.428;19.218;2023-06-04T06:13:46;4.0;;;1.2;;
41229;SDS011;26964;50.428;19.218;2023-06-04T06:14:46;3.5;;;1.4;;